createdAt,value
2018-10-12T00:01:20.975Z,76.00
2018-10-12T00:03:48.421Z,75.90
2018-10-12T00:06:15.866Z,75.50
2018-10-12T00:08:43.284Z,75.40
2018-10-12T00:11:10.792Z,75.20
2018-10-12T00:13:38.183Z,75.40
2018-10-12T00:16:05.798Z,75.10
2018-10-12T00:18:33.191Z,75.10
2018-10-12T00:21:00.639Z,74.80
2018-10-12T00:23:28.023Z,74.90
2018-10-12T00:25:55.472Z,75.10
2018-10-12T00:28:22.948Z,74.80
2018-10-12T00:30:50.375Z,74.80
2018-10-12T00:33:17.886Z,75.20
2018-10-12T00:35:45.347Z,75.70
2018-10-12T00:38:12.772Z,75.80
2018-10-12T00:40:40.172Z,76.00
2018-10-12T00:43:07.618Z,75.70
2018-10-12T00:45:34.963Z,76.20
2018-10-12T00:48:02.420Z,75.20
2018-10-12T00:50:31.268Z,74.90
2018-10-12T00:53:05.454Z,75.30
2018-10-12T00:55:33.602Z,74.90
2018-10-12T00:58:01.012Z,74.50
2018-10-12T01:00:28.386Z,74.80
2018-10-12T01:02:56.416Z,74.80
2018-10-12T01:05:23.812Z,74.70
2018-10-12T01:07:51.348Z,75.30
2018-10-12T01:10:18.797Z,74.70
2018-10-12T01:12:46.845Z,74.60
2018-10-12T01:15:14.338Z,74.80
2018-10-12T01:17:41.902Z,74.90
2018-10-12T01:20:09.556Z,75.30
2018-10-12T01:22:37.059Z,75.10
2018-10-12T01:25:05.574Z,75.20
2018-10-12T01:27:33.346Z,75.70
2018-10-12T01:30:01.143Z,76.00
2018-10-12T01:32:34.227Z,76.30
2018-10-12T01:35:01.638Z,76.50
2018-10-12T01:37:29.128Z,77.20
2018-10-12T01:39:56.734Z,77.10
2018-10-12T01:42:24.148Z,77.30
2018-10-12T01:44:51.541Z,77.40
2018-10-12T01:47:19.006Z,77.30
2018-10-12T01:49:46.452Z,77.30
2018-10-12T01:52:13.949Z,77.00
2018-10-12T01:54:41.708Z,76.80
2018-10-12T01:57:09.752Z,76.80
2018-10-12T01:59:37.322Z,76.60
2018-10-12T02:02:05.036Z,76.60
2018-10-12T02:04:32.533Z,76.70
2018-10-12T02:07:00.535Z,76.30
2018-10-12T02:09:34.686Z,76.30
2018-10-12T02:12:02.128Z,76.30
2018-10-12T02:14:30.384Z,76.40
2018-10-12T02:16:57.886Z,76.10
2018-10-12T02:19:25.354Z,75.90
2018-10-12T02:21:52.840Z,76.20
2018-10-12T02:24:20.276Z,76.20
2018-10-12T02:26:47.676Z,75.90
2018-10-12T02:29:15.124Z,75.80
2018-10-12T02:31:42.968Z,76.40
2018-10-12T02:34:10.384Z,76.30
2018-10-12T02:36:37.853Z,76.10
2018-10-12T02:39:09.402Z,76.00
2018-10-12T02:41:36.837Z,76.10
2018-10-12T02:44:04.228Z,76.10
2018-10-12T02:46:31.588Z,75.90
2018-10-12T02:48:59.039Z,75.80
2018-10-12T02:51:26.480Z,75.90
2018-10-12T02:53:53.880Z,75.90
2018-10-12T02:56:22.380Z,76.10
2018-10-12T02:58:50.648Z,76.20
2018-10-12T03:01:18.992Z,76.00
2018-10-12T03:03:46.478Z,75.40
2018-10-12T03:06:14.016Z,76.10
2018-10-12T03:08:41.564Z,76.30
2018-10-12T03:11:09.059Z,76.00
2018-10-12T03:13:36.553Z,75.40
2018-10-12T03:16:03.988Z,75.40
2018-10-12T03:18:32.046Z,76.20
2018-10-12T03:20:59.448Z,75.90
2018-10-12T03:23:27.675Z,76.10
2018-10-12T03:25:55.108Z,76.80
2018-10-12T03:28:25.818Z,77.50
2018-10-12T03:30:53.403Z,77.10
2018-10-12T03:33:21.026Z,76.90
2018-10-12T03:35:48.631Z,76.60
2018-10-12T03:38:16.121Z,76.30
2018-10-12T03:40:44.103Z,76.20
2018-10-12T03:43:11.817Z,75.70
2018-10-12T03:45:39.294Z,75.40
2018-10-12T03:48:06.817Z,75.30
2018-10-12T03:50:34.297Z,75.10
2018-10-12T03:53:01.647Z,74.90
2018-10-12T03:55:29.225Z,75.10
2018-10-12T03:57:56.768Z,74.90
2018-10-12T04:00:24.159Z,75.00
2018-10-12T04:02:51.644Z,75.00
2018-10-12T04:05:19.084Z,74.70
2018-10-12T04:07:46.567Z,75.20
2018-10-12T04:10:14.050Z,75.00
2018-10-12T04:12:41.551Z,75.20
2018-10-12T04:15:09.011Z,75.60
2018-10-12T04:17:36.423Z,75.70
2018-10-12T04:20:04.038Z,75.30
2018-10-12T04:22:31.466Z,75.40
2018-10-12T04:24:58.917Z,75.40
2018-10-12T04:27:26.414Z,75.50
2018-10-12T04:29:53.852Z,75.60
2018-10-12T04:32:21.280Z,75.60
2018-10-12T04:34:48.648Z,75.70
2018-10-12T04:37:16.530Z,76.10
2018-10-12T04:39:54.625Z,75.70
2018-10-12T04:42:22.136Z,75.90
2018-10-12T04:44:49.732Z,76.20
2018-10-12T04:47:17.312Z,75.50
2018-10-12T04:49:45.080Z,75.70
2018-10-12T04:52:13.848Z,76.00
2018-10-12T04:54:41.412Z,76.10
2018-10-12T04:57:08.796Z,76.00
2018-10-12T04:59:36.171Z,76.40
2018-10-12T05:02:03.597Z,76.00
2018-10-12T05:04:31.197Z,75.70
2018-10-12T05:06:58.757Z,75.30
2018-10-12T05:09:26.126Z,75.80
2018-10-12T05:11:53.526Z,75.60
2018-10-12T05:14:20.984Z,76.10
2018-10-12T05:16:48.834Z,75.70
2018-10-12T05:19:16.294Z,75.40
2018-10-12T05:21:43.727Z,75.70
2018-10-12T05:24:11.105Z,75.40
2018-10-12T05:26:38.552Z,75.80
2018-10-12T05:29:05.967Z,75.80
2018-10-12T05:31:33.334Z,76.00
2018-10-12T05:34:00.912Z,75.80
2018-10-12T05:36:28.380Z,76.40
2018-10-12T05:38:55.822Z,76.30
2018-10-12T05:41:23.404Z,76.20
2018-10-12T05:43:50.972Z,76.10
2018-10-12T05:46:18.311Z,76.40
2018-10-12T05:48:57.255Z,76.20
2018-10-12T05:51:24.901Z,76.20
2018-10-12T05:53:52.371Z,76.90
2018-10-12T05:56:22.372Z,77.10
2018-10-12T05:58:50.261Z,77.10
2018-10-12T06:01:17.734Z,77.00
2018-10-12T06:03:45.145Z,77.40
2018-10-12T06:06:12.676Z,77.10
2018-10-12T06:08:40.140Z,77.10
2018-10-12T06:11:07.656Z,76.70
2018-10-12T06:13:35.103Z,77.30
2018-10-12T06:16:02.608Z,77.60
2018-10-12T06:18:30.039Z,77.80
2018-10-12T06:20:57.481Z,78.40
2018-10-12T06:23:24.958Z,78.40
2018-10-12T06:25:52.391Z,78.80
2018-10-12T06:28:19.829Z,79.20
2018-10-12T06:30:47.273Z,79.80
2018-10-12T06:33:14.760Z,80.00
2018-10-12T06:35:42.177Z,79.60
2018-10-12T06:38:09.530Z,79.10
2018-10-12T06:40:36.931Z,78.50
2018-10-12T06:43:04.292Z,78.60
2018-10-12T06:45:31.708Z,79.40
2018-10-12T06:47:59.106Z,78.80
2018-10-12T06:50:26.612Z,79.40
2018-10-12T06:52:54.037Z,79.00
2018-10-12T06:55:21.430Z,80.60
2018-10-12T06:57:48.877Z,80.70
2018-10-12T07:00:16.425Z,80.90
2018-10-12T07:02:43.872Z,80.50
2018-10-12T07:05:11.449Z,81.30
2018-10-12T07:07:38.962Z,82.00
2018-10-12T07:10:06.524Z,82.60
2018-10-12T07:12:33.877Z,82.60
2018-10-12T07:15:01.264Z,82.20
2018-10-12T07:17:28.754Z,82.70
2018-10-12T07:19:56.169Z,83.20
2018-10-12T07:22:23.625Z,83.40
2018-10-12T07:24:51.131Z,84.10
2018-10-12T07:27:18.561Z,84.90
2018-10-12T07:29:45.964Z,85.10
2018-10-12T07:32:13.383Z,83.60
2018-10-12T07:34:40.784Z,82.50
2018-10-12T07:37:08.228Z,80.30
2018-10-12T07:39:35.615Z,79.80
2018-10-12T07:42:03.009Z,78.90
2018-10-12T07:44:30.398Z,78.10
2018-10-12T07:46:57.806Z,78.10
2018-10-12T07:49:25.457Z,77.70
2018-10-12T07:51:52.905Z,77.30
2018-10-12T07:54:20.338Z,77.90
2018-10-12T07:56:47.757Z,77.50
2018-10-12T07:59:15.248Z,77.60
2018-10-12T08:01:42.705Z,78.30
2018-10-12T08:04:10.141Z,76.90
2018-10-12T08:06:37.620Z,76.50
2018-10-12T08:09:06.534Z,76.40
2018-10-12T08:11:33.940Z,76.80
2018-10-12T08:14:01.357Z,75.10
2018-10-12T08:16:28.810Z,73.50
2018-10-12T08:18:56.255Z,73.40
2018-10-12T08:21:23.689Z,73.30
2018-10-12T08:23:52.020Z,73.50
2018-10-12T08:26:19.422Z,74.10
2018-10-12T08:28:46.824Z,73.90
2018-10-12T08:31:14.276Z,73.40
2018-10-12T08:33:41.731Z,73.10
2018-10-12T08:36:09.197Z,73.00
2018-10-12T08:38:36.633Z,71.00
2018-10-12T08:41:04.116Z,71.80
2018-10-12T08:43:31.502Z,70.50
2018-10-12T08:45:58.930Z,69.30
2018-10-12T08:48:26.349Z,69.10
2018-10-12T08:50:53.740Z,69.80
2018-10-12T08:53:21.176Z,70.60
2018-10-12T08:55:48.585Z,70.10
2018-10-12T08:58:16.042Z,68.20
2018-10-12T09:00:43.490Z,69.30
2018-10-12T09:03:10.948Z,68.70
2018-10-12T09:05:38.322Z,70.10
2018-10-12T09:08:05.857Z,69.90
2018-10-12T09:10:33.279Z,66.70
2018-10-12T09:13:00.692Z,67.70
2018-10-12T09:15:28.209Z,68.90
2018-10-12T09:17:55.680Z,66.60
2018-10-12T09:20:23.208Z,65.90
2018-10-12T09:22:50.450Z,65.80
2018-10-12T09:25:17.809Z,66.00
2018-10-12T09:27:45.288Z,65.80
2018-10-12T09:30:12.806Z,68.80
2018-10-12T09:32:40.233Z,66.60
2018-10-12T09:35:07.770Z,66.40
2018-10-12T09:37:35.272Z,66.80
2018-10-12T09:40:02.804Z,66.90
2018-10-12T09:42:30.221Z,65.90
2018-10-12T09:44:57.668Z,65.60
2018-10-12T09:47:25.105Z,66.10
2018-10-12T09:49:52.573Z,64.20
2018-10-12T09:52:20.002Z,64.00
2018-10-12T09:54:47.396Z,63.60
2018-10-12T09:57:20.502Z,63.80
2018-10-12T09:59:47.911Z,64.40
2018-10-12T10:02:20.932Z,64.20
2018-10-12T10:04:48.337Z,63.80
2018-10-12T10:07:15.738Z,64.80
2018-10-12T10:09:43.195Z,63.60
2018-10-12T10:12:10.700Z,64.00
2018-10-12T10:14:38.161Z,63.50
2018-10-12T10:17:05.607Z,63.20
2018-10-12T10:19:33.015Z,63.00
2018-10-12T10:22:00.441Z,63.30
2018-10-12T10:24:27.910Z,62.50
2018-10-12T10:26:55.369Z,62.50
2018-10-12T10:29:22.920Z,62.50
2018-10-12T10:31:50.188Z,62.60
2018-10-12T10:34:17.752Z,61.90
2018-10-12T10:36:45.146Z,62.10
2018-10-12T10:39:12.835Z,61.60
2018-10-12T10:41:40.514Z,61.80
2018-10-12T10:44:07.912Z,60.60
2018-10-12T10:46:35.374Z,61.50
2018-10-12T10:49:02.883Z,61.00
2018-10-12T10:51:30.234Z,60.90
2018-10-12T10:53:57.723Z,59.70
2018-10-12T10:56:25.424Z,59.70
2018-10-12T10:58:52.939Z,60.80
2018-10-12T11:01:20.355Z,60.80
2018-10-12T11:03:47.812Z,60.10
2018-10-12T11:06:15.426Z,59.80
2018-10-12T11:08:42.792Z,59.10
2018-10-12T11:11:10.216Z,58.90
2018-10-12T11:13:37.680Z,57.00
2018-10-12T11:16:05.378Z,58.00
2018-10-12T11:18:32.798Z,56.10
2018-10-12T11:21:00.204Z,57.20
2018-10-12T11:23:27.600Z,55.80
2018-10-12T11:25:55.057Z,53.00
2018-10-12T11:28:22.480Z,54.50
2018-10-12T11:30:49.897Z,54.50
2018-10-12T11:33:17.383Z,50.20
2018-10-12T11:35:44.869Z,49.40
2018-10-12T11:38:12.314Z,47.60
2018-10-12T11:40:39.718Z,47.90
2018-10-12T11:43:32.419Z,44.70
2018-10-12T11:46:00.437Z,44.90
2018-10-12T11:48:27.867Z,45.50
2018-10-12T11:50:55.339Z,44.20
2018-10-12T11:53:22.708Z,42.30
2018-10-12T11:55:50.061Z,42.40
2018-10-12T12:00:41.205Z,41.90
2018-10-12T12:03:09.895Z,41.40
2018-10-12T12:05:37.448Z,40.50
2018-10-12T12:08:04.951Z,39.80
2018-10-12T12:10:32.337Z,39.40
2018-10-12T12:12:59.766Z,38.80
2018-10-12T12:15:27.264Z,38.80
2018-10-12T12:17:54.828Z,38.70
2018-10-12T12:20:22.328Z,39.70
2018-10-12T12:22:49.761Z,38.50
2018-10-12T12:25:17.230Z,37.80
2018-10-12T12:27:44.725Z,37.80
2018-10-12T12:30:12.184Z,37.80
2018-10-12T12:32:39.669Z,37.80
2018-10-12T12:35:07.330Z,38.70
2018-10-12T12:37:34.566Z,38.80
2018-10-12T12:40:02.053Z,39.40
2018-10-12T12:42:29.428Z,38.90
2018-10-12T12:44:56.815Z,38.40
2018-10-12T12:47:24.467Z,38.70
2018-10-12T12:49:51.684Z,37.70
2018-10-12T12:52:19.125Z,37.80
2018-10-12T12:54:46.585Z,37.80
2018-10-12T12:57:14.008Z,38.90
2018-10-12T12:59:41.386Z,37.50
2018-10-12T13:02:08.775Z,38.10
2018-10-12T13:04:36.212Z,36.80
2018-10-12T13:07:03.696Z,37.30
2018-10-12T13:09:31.167Z,36.60
2018-10-12T13:11:58.585Z,36.10
2018-10-12T13:14:26.095Z,37.70
2018-10-12T13:16:53.623Z,37.80
2018-10-12T13:19:21.034Z,37.30
2018-10-12T13:21:48.544Z,38.00
2018-10-12T13:24:16.523Z,36.80
2018-10-12T13:26:44.040Z,36.30
2018-10-12T13:29:11.477Z,36.80
2018-10-12T13:31:38.897Z,36.30
2018-10-12T13:34:06.452Z,36.10
2018-10-12T13:36:33.918Z,35.90
2018-10-12T13:39:01.316Z,35.70
2018-10-12T13:41:28.786Z,35.40
2018-10-12T13:43:56.557Z,35.80
2018-10-12T13:46:23.985Z,35.00
2018-10-12T13:48:51.414Z,33.90
2018-10-12T13:51:18.923Z,34.60
2018-10-12T13:53:46.312Z,33.80
2018-10-12T13:56:13.880Z,35.10
2018-10-12T13:58:41.389Z,33.60
2018-10-12T14:01:09.756Z,33.00
2018-10-12T14:03:37.210Z,33.60
2018-10-12T14:06:04.705Z,33.30
2018-10-12T14:08:32.172Z,33.40
2018-10-12T14:10:59.531Z,33.80
2018-10-12T14:13:26.929Z,33.80
2018-10-12T14:15:54.527Z,34.70
2018-10-12T14:18:22.100Z,35.60
2018-10-12T14:20:49.484Z,35.20
2018-10-12T14:23:16.892Z,34.70
2018-10-12T14:25:44.258Z,35.40
2018-10-12T14:28:11.845Z,35.90
2018-10-12T14:30:39.241Z,36.10
2018-10-12T14:33:06.853Z,35.90
2018-10-12T14:35:34.354Z,37.50
2018-10-12T14:38:01.768Z,36.80
2018-10-12T14:40:29.165Z,36.80
2018-10-12T14:42:56.750Z,37.70
2018-10-12T14:45:24.219Z,36.90
2018-10-12T14:47:51.639Z,37.00
2018-10-12T14:50:19.087Z,36.70
2018-10-12T14:52:46.503Z,35.80
2018-10-12T14:55:13.897Z,37.40
2018-10-12T14:57:41.287Z,35.60
2018-10-12T15:00:09.344Z,34.70
2018-10-12T15:02:36.859Z,33.70
2018-10-12T15:05:04.778Z,34.60
2018-10-12T15:07:32.298Z,34.70
2018-10-12T15:09:59.748Z,35.60
2018-10-12T15:12:27.135Z,34.10
2018-10-12T15:15:12.093Z,34.30
2018-10-12T15:17:39.641Z,36.40
2018-10-12T15:20:07.042Z,34.10
2018-10-12T15:22:34.513Z,33.90
2018-10-12T15:25:02.006Z,33.70
2018-10-12T15:27:29.482Z,33.90
2018-10-12T15:29:56.890Z,35.40
2018-10-12T15:32:24.343Z,34.20
2018-10-12T15:34:51.770Z,34.80
2018-10-12T15:37:19.230Z,35.20
2018-10-12T15:39:46.694Z,34.00
2018-10-12T15:42:14.180Z,34.10
2018-10-12T15:44:41.641Z,34.50
2018-10-12T15:47:09.160Z,36.60
2018-10-12T15:49:36.624Z,38.50
2018-10-12T15:52:04.113Z,39.10
2018-10-12T15:54:31.664Z,39.00
2018-10-12T15:56:59.190Z,40.50
2018-10-12T15:59:26.550Z,41.00
2018-10-12T16:01:53.979Z,42.10
2018-10-12T16:04:21.475Z,43.50
2018-10-12T16:06:48.945Z,44.40
2018-10-12T16:09:16.404Z,45.10
2018-10-12T16:18:40.534Z,44.70
2018-10-12T16:21:07.939Z,43.90
2018-10-12T16:23:35.371Z,44.30
2018-10-12T16:27:16.741Z,44.80
2018-10-12T16:29:44.134Z,45.40
2018-10-12T16:32:11.624Z,44.40
2018-10-12T16:34:39.092Z,44.80
2018-10-12T16:37:06.551Z,45.10
2018-10-12T16:39:33.942Z,45.20
2018-10-12T16:42:01.367Z,45.60
2018-10-12T16:44:28.826Z,46.10
2018-10-12T16:46:56.280Z,46.80
2018-10-12T16:49:23.812Z,47.10
2018-10-12T16:51:51.220Z,46.90
2018-10-12T16:54:18.611Z,46.80
2018-10-12T16:56:46.057Z,46.90
2018-10-12T16:59:13.550Z,47.20
2018-10-12T17:01:40.965Z,47.20
2018-10-12T17:04:08.358Z,47.60
2018-10-12T17:06:35.738Z,47.80
2018-10-12T17:09:04.038Z,48.20
2018-10-12T17:11:31.449Z,48.40
2018-10-12T17:13:58.899Z,48.70
2018-10-12T17:16:26.294Z,49.10
2018-10-12T17:18:53.635Z,49.50
2018-10-12T17:21:21.107Z,49.50
2018-10-12T17:23:48.501Z,49.50
2018-10-12T17:26:15.931Z,49.70
2018-10-12T17:28:43.400Z,49.70
2018-10-12T17:31:10.882Z,49.50
2018-10-12T17:33:38.273Z,49.60
2018-10-12T17:36:05.821Z,49.60
2018-10-12T17:38:33.353Z,49.70
2018-10-12T17:41:07.950Z,49.80
2018-10-12T17:43:35.396Z,50.40
2018-10-12T17:46:02.867Z,50.20
2018-10-12T17:48:30.296Z,50.70
2018-10-12T17:50:57.755Z,50.90
2018-10-12T17:53:25.239Z,51.00
2018-10-12T17:55:52.690Z,50.70
2018-10-12T17:58:20.101Z,50.50
2018-10-12T18:00:47.529Z,50.50
2018-10-12T18:03:14.915Z,50.80
2018-10-12T18:05:42.331Z,51.20
2018-10-12T18:08:09.731Z,51.30
2018-10-12T18:10:37.194Z,51.40
2018-10-12T18:13:04.665Z,51.40
2018-10-12T18:15:32.136Z,51.20
2018-10-12T18:17:59.645Z,51.20
2018-10-12T18:20:27.120Z,51.10
2018-10-12T18:22:54.457Z,51.50
2018-10-12T18:25:22.031Z,52.10
2018-10-12T18:27:49.480Z,52.50
2018-10-12T18:30:17.111Z,52.20
2018-10-12T18:32:44.596Z,52.00
2018-10-12T18:35:11.999Z,52.10
2018-10-12T18:37:39.334Z,52.30
2018-10-12T18:40:06.693Z,52.60
2018-10-12T18:42:34.070Z,53.00
2018-10-12T18:45:01.465Z,53.00
2018-10-12T18:47:28.891Z,53.30
2018-10-12T18:49:56.349Z,53.50
2018-10-12T18:52:23.833Z,53.90
2018-10-12T18:54:51.427Z,53.90
2018-10-12T18:57:18.780Z,53.90
2018-10-12T18:59:46.264Z,54.10
2018-10-12T19:02:13.711Z,54.00
2018-10-12T19:04:41.221Z,54.50
2018-10-12T19:07:08.619Z,54.50
2018-10-12T19:09:36.099Z,54.90
2018-10-12T19:12:03.607Z,55.20
2018-10-12T19:14:31.148Z,55.00
2018-10-12T19:16:58.628Z,55.20
2018-10-12T19:19:26.199Z,54.90
2018-10-12T19:21:53.656Z,55.20
2018-10-12T19:24:21.106Z,55.50
2018-10-12T19:26:48.550Z,55.60
2018-10-12T19:29:16.025Z,55.70
2018-10-12T19:31:43.516Z,55.40
2018-10-12T19:34:10.984Z,55.80
2018-10-12T19:36:38.365Z,55.70
2018-10-12T19:39:07.258Z,56.00
2018-10-12T19:41:34.688Z,56.10
2018-10-12T19:44:02.113Z,56.10
2018-10-12T19:46:29.644Z,57.00
2018-10-12T19:48:57.096Z,56.10
2018-10-12T19:51:24.541Z,56.30
2018-10-12T19:53:51.920Z,56.20
2018-10-12T19:56:19.288Z,56.50
2018-10-12T19:58:46.655Z,56.60
2018-10-12T20:01:14.247Z,56.80
2018-10-12T20:03:41.612Z,56.90
2018-10-12T20:06:08.987Z,57.00
2018-10-12T20:08:36.424Z,57.30
2018-10-12T20:11:03.869Z,57.50
2018-10-12T20:13:31.311Z,57.60
2018-10-12T20:15:58.927Z,57.70
2018-10-12T20:18:26.426Z,57.90
2018-10-12T20:20:53.862Z,57.90
2018-10-12T20:23:21.293Z,58.20
2018-10-12T20:25:48.696Z,58.30
2018-10-12T20:28:16.078Z,58.20
2018-10-12T20:30:43.487Z,58.40
2018-10-12T20:33:10.859Z,58.50
2018-10-12T20:35:38.310Z,58.60
2018-10-12T20:38:06.127Z,58.60
2018-10-12T20:40:33.544Z,58.70
2018-10-12T20:43:01.040Z,58.90
2018-10-12T20:45:28.556Z,59.10
2018-10-12T20:47:55.956Z,59.40
2018-10-12T20:50:23.451Z,59.90
2018-10-12T20:52:50.845Z,60.30
2018-10-12T20:55:18.437Z,60.30
2018-10-12T20:57:48.368Z,60.10
2018-10-12T21:00:17.240Z,59.60
2018-10-12T21:02:44.824Z,59.50
2018-10-12T21:05:12.363Z,59.30
2018-10-12T21:07:40.258Z,59.30
2018-10-12T21:10:08.017Z,59.40
2018-10-12T21:12:35.482Z,59.20
2018-10-12T21:15:02.844Z,59.30
2018-10-12T21:17:30.277Z,59.40
2018-10-12T21:19:57.786Z,59.50
2018-10-12T21:22:25.153Z,59.90
2018-10-12T21:24:52.554Z,60.20
2018-10-12T21:27:19.989Z,60.10
2018-10-12T21:29:47.450Z,60.30
2018-10-12T21:32:14.926Z,60.40
2018-10-12T21:34:42.391Z,60.50
2018-10-12T21:37:09.913Z,60.90
2018-10-12T21:39:37.381Z,61.60
2018-10-12T21:42:04.782Z,60.80
2018-10-12T21:44:32.256Z,60.90
2018-10-12T21:46:59.734Z,61.60
2018-10-12T21:49:27.222Z,61.40
2018-10-12T21:51:54.836Z,61.20
2018-10-12T21:54:22.236Z,61.40
2018-10-12T21:56:49.612Z,61.30
2018-10-12T21:59:17.081Z,61.10
2018-10-12T22:01:44.614Z,61.30
2018-10-12T22:04:12.103Z,61.00
2018-10-12T22:06:39.525Z,61.30
2018-10-12T22:09:07.804Z,61.40
2018-10-12T22:11:35.378Z,61.80
2018-10-12T22:14:03.070Z,62.30
2018-10-12T22:16:30.497Z,62.70
2018-10-12T22:18:57.935Z,63.50
2018-10-12T22:21:25.614Z,63.70
2018-10-12T22:23:53.080Z,63.80
2018-10-12T22:26:20.504Z,63.70
2018-10-12T22:28:47.927Z,63.80
2018-10-12T22:31:15.461Z,64.20
2018-10-12T22:33:42.818Z,64.20
2018-10-12T22:36:10.286Z,64.40
2018-10-12T22:38:37.730Z,64.30
2018-10-12T22:41:05.200Z,64.50
2018-10-12T22:43:32.584Z,64.40
2018-10-12T22:45:59.987Z,64.20
2018-10-12T22:48:27.461Z,64.30
2018-10-12T22:50:54.991Z,64.10
2018-10-12T22:53:22.797Z,63.90
2018-10-12T22:55:50.274Z,64.20
2018-10-12T22:58:17.726Z,65.00
2018-10-12T23:00:45.079Z,64.80
2018-10-12T23:03:12.480Z,64.90
2018-10-12T23:05:39.970Z,64.90
2018-10-12T23:08:07.395Z,64.80
2018-10-12T23:10:34.895Z,65.30
2018-10-12T23:13:02.252Z,65.00
2018-10-12T23:15:29.664Z,64.60
2018-10-12T23:17:57.136Z,64.80
2018-10-12T23:20:24.550Z,64.50
2018-10-12T23:22:52.018Z,64.50
2018-10-12T23:25:19.442Z,64.10
2018-10-12T23:27:46.940Z,64.10
2018-10-12T23:30:14.406Z,64.00
2018-10-12T23:32:41.839Z,64.40
2018-10-12T23:35:09.308Z,64.50
2018-10-12T23:37:36.694Z,64.60
2018-10-12T23:40:04.216Z,64.60
2018-10-12T23:42:31.674Z,65.10
2018-10-12T23:44:59.056Z,64.70
2018-10-12T23:47:26.546Z,64.90
2018-10-12T23:49:53.984Z,64.20
2018-10-12T23:52:21.378Z,64.90
2018-10-12T23:54:48.864Z,64.40
2018-10-12T23:57:16.360Z,64.40
2018-10-12T23:59:43.740Z,64.40
